sensor_id;sensor_type;location;lat;lon;timestamp;P1;durP1;ratioP1;P2;durP2;ratioP2
84054;SDS011;74141;51.504;7.122;2024-03-17T00:00:20;9.48;;;5.10;;
84054;SDS011;74141;51.504;7.122;2024-03-17T00:02:46;14.43;;;6.95;;
84054;SDS011;74141;51.504;7.122;2024-03-17T00:05:12;17.88;;;8.55;;
84054;SDS011;74141;51.504;7.122;2024-03-17T00:07:38;10.13;;;6.63;;
84054;SDS011;74141;51.504;7.122;2024-03-17T00:10:04;13.50;;;9.27;;
84054;SDS011;74141;51.504;7.122;2024-03-17T00:12:29;14.52;;;8.82;;
84054;SDS011;74141;51.504;7.122;2024-03-17T00:14:54;15.03;;;8.10;;
84054;SDS011;74141;51.504;7.122;2024-03-17T00:17:20;12.20;;;6.57;;
84054;SDS011;74141;51.504;7.122;2024-03-17T00:19:46;11.88;;;7.65;;
84054;SDS011;74141;51.504;7.122;2024-03-17T00:22:11;9.98;;;6.47;;
84054;SDS011;74141;51.504;7.122;2024-03-17T00:24:39;13.23;;;6.88;;
84054;SDS011;74141;51.504;7.122;2024-03-17T00:27:05;14.73;;;8.23;;
84054;SDS011;74141;51.504;7.122;2024-03-17T00:29:30;15.45;;;7.70;;
84054;SDS011;74141;51.504;7.122;2024-03-17T00:31:56;11.00;;;7.20;;
84054;SDS011;74141;51.504;7.122;2024-03-17T00:34:21;17.58;;;7.03;;
84054;SDS011;74141;51.504;7.122;2024-03-17T00:36:47;10.23;;;6.65;;
84054;SDS011;74141;51.504;7.122;2024-03-17T00:39:12;9.95;;;6.57;;
84054;SDS011;74141;51.504;7.122;2024-03-17T00:41:39;16.88;;;6.72;;
84054;SDS011;74141;51.504;7.122;2024-03-17T00:44:04;11.00;;;6.15;;
84054;SDS011;74141;51.504;7.122;2024-03-17T00:46:31;20.58;;;7.25;;
84054;SDS011;74141;51.504;7.122;2024-03-17T00:48:56;11.93;;;6.45;;
84054;SDS011;74141;51.504;7.122;2024-03-17T00:51:23;12.20;;;6.80;;
84054;SDS011;74141;51.504;7.122;2024-03-17T00:53:48;14.17;;;7.00;;
84054;SDS011;74141;51.504;7.122;2024-03-17T00:56:14;17.52;;;7.88;;
84054;SDS011;74141;51.504;7.122;2024-03-17T00:58:39;16.25;;;6.90;;
84054;SDS011;74141;51.504;7.122;2024-03-17T01:01:05;12.05;;;7.15;;
84054;SDS011;74141;51.504;7.122;2024-03-17T01:03:30;10.50;;;6.82;;
84054;SDS011;74141;51.504;7.122;2024-03-17T01:05:56;12.02;;;8.10;;
84054;SDS011;74141;51.504;7.122;2024-03-17T01:08:21;13.33;;;6.83;;
84054;SDS011;74141;51.504;7.122;2024-03-17T01:10:47;15.98;;;10.38;;
84054;SDS011;74141;51.504;7.122;2024-03-17T01:13:17;13.13;;;9.45;;
84054;SDS011;74141;51.504;7.122;2024-03-17T01:15:43;12.02;;;8.32;;
84054;SDS011;74141;51.504;7.122;2024-03-17T01:18:08;19.45;;;7.90;;
84054;SDS011;74141;51.504;7.122;2024-03-17T01:20:34;16.45;;;8.38;;
84054;SDS011;74141;51.504;7.122;2024-03-17T01:23:01;12.68;;;6.20;;
84054;SDS011;74141;51.504;7.122;2024-03-17T01:25:27;15.23;;;7.07;;
84054;SDS011;74141;51.504;7.122;2024-03-17T01:27:54;9.52;;;6.30;;
84054;SDS011;74141;51.504;7.122;2024-03-17T01:30:19;11.55;;;6.80;;
84054;SDS011;74141;51.504;7.122;2024-03-17T01:32:45;10.23;;;6.73;;
84054;SDS011;74141;51.504;7.122;2024-03-17T01:35:11;15.05;;;5.80;;
84054;SDS011;74141;51.504;7.122;2024-03-17T01:37:37;11.20;;;6.15;;
84054;SDS011;74141;51.504;7.122;2024-03-17T01:40:02;9.20;;;7.10;;
84054;SDS011;74141;51.504;7.122;2024-03-17T01:42:33;9.10;;;5.97;;
84054;SDS011;74141;51.504;7.122;2024-03-17T01:44:58;11.35;;;8.05;;
84054;SDS011;74141;51.504;7.122;2024-03-17T01:47:23;16.10;;;7.13;;
84054;SDS011;74141;51.504;7.122;2024-03-17T01:49:49;11.68;;;7.03;;
84054;SDS011;74141;51.504;7.122;2024-03-17T01:52:16;14.93;;;6.53;;
84054;SDS011;74141;51.504;7.122;2024-03-17T01:54:43;14.02;;;7.10;;
84054;SDS011;74141;51.504;7.122;2024-03-17T01:57:10;13.80;;;6.88;;
84054;SDS011;74141;51.504;7.122;2024-03-17T01:59:36;12.90;;;7.15;;
84054;SDS011;74141;51.504;7.122;2024-03-17T02:02:14;13.73;;;6.85;;
84054;SDS011;74141;51.504;7.122;2024-03-17T02:04:39;10.05;;;6.95;;
84054;SDS011;74141;51.504;7.122;2024-03-17T02:07:14;13.73;;;7.85;;
84054;SDS011;74141;51.504;7.122;2024-03-17T02:09:40;17.27;;;9.15;;
84054;SDS011;74141;51.504;7.122;2024-03-17T02:12:14;18.33;;;11.10;;
84054;SDS011;74141;51.504;7.122;2024-03-17T02:14:39;18.63;;;11.05;;
84054;SDS011;74141;51.504;7.122;2024-03-17T02:17:11;20.60;;;10.10;;
84054;SDS011;74141;51.504;7.122;2024-03-17T02:19:36;21.67;;;10.70;;
84054;SDS011;74141;51.504;7.122;2024-03-17T02:22:14;15.20;;;10.10;;
84054;SDS011;74141;51.504;7.122;2024-03-17T02:24:42;19.35;;;12.70;;
84054;SDS011;74141;51.504;7.122;2024-03-17T02:27:11;19.58;;;11.48;;
84054;SDS011;74141;51.504;7.122;2024-03-17T02:29:36;15.27;;;10.45;;
84054;SDS011;74141;51.504;7.122;2024-03-17T02:32:11;14.50;;;8.70;;
84054;SDS011;74141;51.504;7.122;2024-03-17T02:34:37;12.55;;;8.30;;
84054;SDS011;74141;51.504;7.122;2024-03-17T02:37:12;13.43;;;8.32;;
84054;SDS011;74141;51.504;7.122;2024-03-17T02:39:38;14.02;;;8.40;;
84054;SDS011;74141;51.504;7.122;2024-03-17T02:42:12;14.65;;;7.43;;
84054;SDS011;74141;51.504;7.122;2024-03-17T02:44:38;8.25;;;6.10;;
84054;SDS011;74141;51.504;7.122;2024-03-17T02:47:14;16.50;;;7.30;;
84054;SDS011;74141;51.504;7.122;2024-03-17T02:49:39;12.25;;;7.60;;
84054;SDS011;74141;51.504;7.122;2024-03-17T02:52:14;11.98;;;6.18;;
84054;SDS011;74141;51.504;7.122;2024-03-17T02:54:39;11.95;;;6.28;;
84054;SDS011;74141;51.504;7.122;2024-03-17T02:59:50;13.10;;;7.28;;
84054;SDS011;74141;51.504;7.122;2024-03-17T03:02:16;12.98;;;6.82;;
84054;SDS011;74141;51.504;7.122;2024-03-17T03:04:42;15.90;;;7.00;;
84054;SDS011;74141;51.504;7.122;2024-03-17T03:07:07;15.37;;;6.97;;
84054;SDS011;74141;51.504;7.122;2024-03-17T03:09:32;18.40;;;7.25;;
84054;SDS011;74141;51.504;7.122;2024-03-17T03:11:58;10.07;;;6.63;;
84054;SDS011;74141;51.504;7.122;2024-03-17T03:14:30;11.95;;;6.57;;
84054;SDS011;74141;51.504;7.122;2024-03-17T03:16:56;14.40;;;6.90;;
84054;SDS011;74141;51.504;7.122;2024-03-17T03:19:22;13.82;;;6.55;;
84054;SDS011;74141;51.504;7.122;2024-03-17T03:21:47;11.85;;;6.50;;
84054;SDS011;74141;51.504;7.122;2024-03-17T03:24:15;11.18;;;6.53;;
84054;SDS011;74141;51.504;7.122;2024-03-17T03:26:41;12.65;;;7.50;;
84054;SDS011;74141;51.504;7.122;2024-03-17T03:29:06;10.65;;;6.88;;
84054;SDS011;74141;51.504;7.122;2024-03-17T03:31:32;15.50;;;6.90;;
84054;SDS011;74141;51.504;7.122;2024-03-17T03:33:58;11.60;;;7.07;;
84054;SDS011;74141;51.504;7.122;2024-03-17T03:36:26;11.95;;;6.63;;
84054;SDS011;74141;51.504;7.122;2024-03-17T03:38:52;13.30;;;6.47;;
84054;SDS011;74141;51.504;7.122;2024-03-17T03:41:18;11.40;;;6.80;;
84054;SDS011;74141;51.504;7.122;2024-03-17T03:43:43;13.68;;;6.05;;
84054;SDS011;74141;51.504;7.122;2024-03-17T03:46:11;11.70;;;6.55;;
84054;SDS011;74141;51.504;7.122;2024-03-17T03:48:36;10.80;;;6.50;;
84054;SDS011;74141;51.504;7.122;2024-03-17T03:51:07;13.30;;;6.73;;
84054;SDS011;74141;51.504;7.122;2024-03-17T03:53:34;14.60;;;7.20;;
84054;SDS011;74141;51.504;7.122;2024-03-17T03:56:02;9.93;;;6.22;;
84054;SDS011;74141;51.504;7.122;2024-03-17T04:00:56;13.73;;;6.00;;
84054;SDS011;74141;51.504;7.122;2024-03-17T04:03:21;11.07;;;6.70;;
84054;SDS011;74141;51.504;7.122;2024-03-17T04:05:47;15.18;;;6.53;;
84054;SDS011;74141;51.504;7.122;2024-03-17T04:08:12;10.20;;;7.03;;
84054;SDS011;74141;51.504;7.122;2024-03-17T04:10:38;11.65;;;6.30;;
84054;SDS011;74141;51.504;7.122;2024-03-17T04:13:03;13.73;;;7.43;;
84054;SDS011;74141;51.504;7.122;2024-03-17T04:15:28;14.82;;;6.47;;
84054;SDS011;74141;51.504;7.122;2024-03-17T04:17:54;13.75;;;7.05;;
84054;SDS011;74141;51.504;7.122;2024-03-17T04:20:19;12.38;;;6.47;;
84054;SDS011;74141;51.504;7.122;2024-03-17T04:22:45;15.63;;;7.10;;
84054;SDS011;74141;51.504;7.122;2024-03-17T04:25:11;15.18;;;6.82;;
84054;SDS011;74141;51.504;7.122;2024-03-17T04:27:38;12.90;;;7.10;;
84054;SDS011;74141;51.504;7.122;2024-03-17T04:30:03;9.48;;;6.65;;
84054;SDS011;74141;51.504;7.122;2024-03-17T04:32:30;15.60;;;6.20;;
84054;SDS011;74141;51.504;7.122;2024-03-17T04:34:57;9.68;;;5.40;;
84054;SDS011;74141;51.504;7.122;2024-03-17T04:37:22;13.70;;;7.00;;
84054;SDS011;74141;51.504;7.122;2024-03-17T04:39:48;18.92;;;7.75;;
84054;SDS011;74141;51.504;7.122;2024-03-17T04:42:14;11.70;;;7.72;;
84054;SDS011;74141;51.504;7.122;2024-03-17T04:44:41;13.05;;;6.57;;
84054;SDS011;74141;51.504;7.122;2024-03-17T04:47:07;18.92;;;6.68;;
84054;SDS011;74141;51.504;7.122;2024-03-17T04:49:40;13.00;;;6.65;;
84054;SDS011;74141;51.504;7.122;2024-03-17T04:52:07;11.30;;;6.45;;
84054;SDS011;74141;51.504;7.122;2024-03-17T04:54:33;13.57;;;6.13;;
84054;SDS011;74141;51.504;7.122;2024-03-17T04:56:59;13.98;;;5.97;;
84054;SDS011;74141;51.504;7.122;2024-03-17T04:59:25;10.57;;;6.45;;
84054;SDS011;74141;51.504;7.122;2024-03-17T05:01:50;19.77;;;6.53;;
84054;SDS011;74141;51.504;7.122;2024-03-17T05:04:16;18.10;;;6.20;;
84054;SDS011;74141;51.504;7.122;2024-03-17T05:06:42;9.10;;;6.40;;
84054;SDS011;74141;51.504;7.122;2024-03-17T05:09:11;12.98;;;6.68;;
84054;SDS011;74141;51.504;7.122;2024-03-17T05:11:39;14.75;;;6.10;;
84054;SDS011;74141;51.504;7.122;2024-03-17T05:14:05;10.20;;;6.40;;
84054;SDS011;74141;51.504;7.122;2024-03-17T05:16:31;8.90;;;5.93;;
84054;SDS011;74141;51.504;7.122;2024-03-17T05:18:56;10.05;;;6.28;;
84054;SDS011;74141;51.504;7.122;2024-03-17T05:21:21;13.80;;;5.95;;
84054;SDS011;74141;51.504;7.122;2024-03-17T05:23:48;10.82;;;5.90;;
84054;SDS011;74141;51.504;7.122;2024-03-17T05:26:14;11.85;;;6.97;;
84054;SDS011;74141;51.504;7.122;2024-03-17T05:28:39;16.30;;;6.45;;
84054;SDS011;74141;51.504;7.122;2024-03-17T05:31:04;11.38;;;6.50;;
84054;SDS011;74141;51.504;7.122;2024-03-17T05:33:30;12.13;;;6.13;;
84054;SDS011;74141;51.504;7.122;2024-03-17T05:35:59;10.13;;;5.90;;
84054;SDS011;74141;51.504;7.122;2024-03-17T05:38:27;16.77;;;7.10;;
84054;SDS011;74141;51.504;7.122;2024-03-17T05:43:26;11.45;;;7.07;;
84054;SDS011;74141;51.504;7.122;2024-03-17T05:45:58;15.02;;;6.38;;
84054;SDS011;74141;51.504;7.122;2024-03-17T05:48:25;13.88;;;6.15;;
84054;SDS011;74141;51.504;7.122;2024-03-17T05:50:51;11.73;;;6.38;;
84054;SDS011;74141;51.504;7.122;2024-03-17T05:53:17;15.55;;;6.97;;
84054;SDS011;74141;51.504;7.122;2024-03-17T05:55:43;9.07;;;6.05;;
84054;SDS011;74141;51.504;7.122;2024-03-17T05:58:09;14.82;;;6.85;;
84054;SDS011;74141;51.504;7.122;2024-03-17T06:00:34;15.13;;;7.18;;
84054;SDS011;74141;51.504;7.122;2024-03-17T06:03:01;20.55;;;7.93;;
84054;SDS011;74141;51.504;7.122;2024-03-17T06:05:26;13.18;;;7.18;;
84054;SDS011;74141;51.504;7.122;2024-03-17T06:07:52;14.00;;;6.50;;
84054;SDS011;74141;51.504;7.122;2024-03-17T06:10:17;12.63;;;7.50;;
84054;SDS011;74141;51.504;7.122;2024-03-17T06:12:42;15.17;;;7.17;;
84054;SDS011;74141;51.504;7.122;2024-03-17T06:15:08;11.05;;;6.90;;
84054;SDS011;74141;51.504;7.122;2024-03-17T06:17:33;12.77;;;7.07;;
84054;SDS011;74141;51.504;7.122;2024-03-17T06:19:59;16.90;;;7.87;;
84054;SDS011;74141;51.504;7.122;2024-03-17T06:22:27;15.20;;;6.40;;
84054;SDS011;74141;51.504;7.122;2024-03-17T06:24:53;17.17;;;8.93;;
84054;SDS011;74141;51.504;7.122;2024-03-17T06:27:18;21.52;;;9.93;;
84054;SDS011;74141;51.504;7.122;2024-03-17T06:29:43;14.82;;;8.43;;
84054;SDS011;74141;51.504;7.122;2024-03-17T06:32:10;24.00;;;9.80;;
84054;SDS011;74141;51.504;7.122;2024-03-17T06:34:36;18.10;;;8.73;;
84054;SDS011;74141;51.504;7.122;2024-03-17T06:37:01;19.17;;;9.38;;
84054;SDS011;74141;51.504;7.122;2024-03-17T06:39:28;16.23;;;7.40;;
84054;SDS011;74141;51.504;7.122;2024-03-17T06:41:53;14.70;;;8.05;;
84054;SDS011;74141;51.504;7.122;2024-03-17T06:44:18;12.07;;;7.30;;
84054;SDS011;74141;51.504;7.122;2024-03-17T06:46:44;18.38;;;8.48;;
84054;SDS011;74141;51.504;7.122;2024-03-17T06:49:11;13.70;;;8.15;;
84054;SDS011;74141;51.504;7.122;2024-03-17T06:51:37;14.30;;;7.05;;
84054;SDS011;74141;51.504;7.122;2024-03-17T06:54:02;9.20;;;6.20;;
84054;SDS011;74141;51.504;7.122;2024-03-17T06:56:28;14.40;;;7.07;;
84054;SDS011;74141;51.504;7.122;2024-03-17T06:58:54;10.40;;;6.47;;
84054;SDS011;74141;51.504;7.122;2024-03-17T07:01:19;11.73;;;7.03;;
84054;SDS011;74141;51.504;7.122;2024-03-17T07:03:44;14.10;;;7.27;;
84054;SDS011;74141;51.504;7.122;2024-03-17T07:06:09;11.90;;;8.20;;
84054;SDS011;74141;51.504;7.122;2024-03-17T07:08:35;10.40;;;6.80;;
84054;SDS011;74141;51.504;7.122;2024-03-17T07:11:04;12.55;;;6.45;;
84054;SDS011;74141;51.504;7.122;2024-03-17T07:13:32;11.20;;;6.13;;
84054;SDS011;74141;51.504;7.122;2024-03-17T07:15:59;11.95;;;5.85;;
84054;SDS011;74141;51.504;7.122;2024-03-17T07:18:26;11.63;;;5.75;;
84054;SDS011;74141;51.504;7.122;2024-03-17T07:20:52;8.45;;;5.55;;
84054;SDS011;74141;51.504;7.122;2024-03-17T07:23:18;7.70;;;5.38;;
84054;SDS011;74141;51.504;7.122;2024-03-17T07:25:51;8.60;;;5.35;;
84054;SDS011;74141;51.504;7.122;2024-03-17T07:28:17;5.75;;;3.95;;
84054;SDS011;74141;51.504;7.122;2024-03-17T07:30:46;6.43;;;4.50;;
84054;SDS011;74141;51.504;7.122;2024-03-17T07:33:12;9.55;;;5.00;;
84054;SDS011;74141;51.504;7.122;2024-03-17T07:35:45;9.73;;;4.97;;
84054;SDS011;74141;51.504;7.122;2024-03-17T07:38:33;9.85;;;4.72;;
84054;SDS011;74141;51.504;7.122;2024-03-17T07:41:01;7.65;;;4.30;;
84054;SDS011;74141;51.504;7.122;2024-03-17T07:43:31;6.68;;;4.57;;
84054;SDS011;74141;51.504;7.122;2024-03-17T07:46:04;5.13;;;4.03;;
84054;SDS011;74141;51.504;7.122;2024-03-17T07:48:31;5.88;;;3.80;;
84054;SDS011;74141;51.504;7.122;2024-03-17T07:51:02;5.25;;;3.92;;
84054;SDS011;74141;51.504;7.122;2024-03-17T07:53:29;5.38;;;3.83;;
84054;SDS011;74141;51.504;7.122;2024-03-17T07:55:59;6.28;;;4.53;;
84054;SDS011;74141;51.504;7.122;2024-03-17T07:58:27;6.03;;;3.78;;
84054;SDS011;74141;51.504;7.122;2024-03-17T08:00:56;7.13;;;3.80;;
84054;SDS011;74141;51.504;7.122;2024-03-17T08:03:24;5.25;;;3.53;;
84054;SDS011;74141;51.504;7.122;2024-03-17T08:05:50;5.75;;;3.60;;
84054;SDS011;74141;51.504;7.122;2024-03-17T08:08:16;5.40;;;3.50;;
84054;SDS011;74141;51.504;7.122;2024-03-17T08:10:41;5.70;;;3.95;;
84054;SDS011;74141;51.504;7.122;2024-03-17T08:13:06;6.35;;;3.60;;
84054;SDS011;74141;51.504;7.122;2024-03-17T08:15:33;4.68;;;3.30;;
84054;SDS011;74141;51.504;7.122;2024-03-17T08:17:59;4.70;;;3.47;;
84054;SDS011;74141;51.504;7.122;2024-03-17T08:20:24;6.80;;;3.97;;
84054;SDS011;74141;51.504;7.122;2024-03-17T08:22:50;4.95;;;3.13;;
84054;SDS011;74141;51.504;7.122;2024-03-17T08:25:15;4.60;;;3.40;;
84054;SDS011;74141;51.504;7.122;2024-03-17T08:27:40;4.90;;;3.03;;
84054;SDS011;74141;51.504;7.122;2024-03-17T08:30:06;5.67;;;3.50;;
84054;SDS011;74141;51.504;7.122;2024-03-17T08:32:35;6.63;;;3.63;;
84054;SDS011;74141;51.504;7.122;2024-03-17T08:35:00;6.15;;;3.78;;
84054;SDS011;74141;51.504;7.122;2024-03-17T08:37:25;5.70;;;3.70;;
84054;SDS011;74141;51.504;7.122;2024-03-17T08:39:51;5.00;;;3.43;;
84054;SDS011;74141;51.504;7.122;2024-03-17T08:42:16;6.45;;;3.25;;
84054;SDS011;74141;51.504;7.122;2024-03-17T08:44:45;5.57;;;3.45;;
84054;SDS011;74141;51.504;7.122;2024-03-17T08:47:11;7.25;;;3.60;;
84054;SDS011;74141;51.504;7.122;2024-03-17T08:49:36;6.33;;;3.77;;
84054;SDS011;74141;51.504;7.122;2024-03-17T08:52:01;4.47;;;3.20;;
84054;SDS011;74141;51.504;7.122;2024-03-17T08:54:27;4.50;;;3.65;;
84054;SDS011;74141;51.504;7.122;2024-03-17T08:56:52;8.88;;;4.07;;
84054;SDS011;74141;51.504;7.122;2024-03-17T08:59:17;5.67;;;3.30;;
84054;SDS011;74141;51.504;7.122;2024-03-17T09:01:42;5.07;;;2.97;;
84054;SDS011;74141;51.504;7.122;2024-03-17T09:04:08;4.13;;;3.10;;
84054;SDS011;74141;51.504;7.122;2024-03-17T09:06:36;4.75;;;3.53;;
84054;SDS011;74141;51.504;7.122;2024-03-17T09:09:02;7.05;;;3.10;;
84054;SDS011;74141;51.504;7.122;2024-03-17T09:11:28;4.20;;;3.10;;
84054;SDS011;74141;51.504;7.122;2024-03-17T09:13:53;4.32;;;3.42;;
84054;SDS011;74141;51.504;7.122;2024-03-17T09:16:19;4.65;;;3.08;;
84054;SDS011;74141;51.504;7.122;2024-03-17T09:18:47;5.50;;;3.05;;
84054;SDS011;74141;51.504;7.122;2024-03-17T09:21:14;3.97;;;2.72;;
84054;SDS011;74141;51.504;7.122;2024-03-17T09:23:41;4.70;;;2.72;;
84054;SDS011;74141;51.504;7.122;2024-03-17T09:26:07;6.90;;;3.35;;
84054;SDS011;74141;51.504;7.122;2024-03-17T09:28:34;7.13;;;3.30;;
84054;SDS011;74141;51.504;7.122;2024-03-17T09:31:01;4.38;;;3.13;;
84054;SDS011;74141;51.504;7.122;2024-03-17T09:33:27;6.40;;;3.30;;
84054;SDS011;74141;51.504;7.122;2024-03-17T09:35:54;6.15;;;3.30;;
84054;SDS011;74141;51.504;7.122;2024-03-17T09:38:25;5.00;;;3.20;;
84054;SDS011;74141;51.504;7.122;2024-03-17T09:40:51;4.97;;;3.05;;
84054;SDS011;74141;51.504;7.122;2024-03-17T09:43:22;4.25;;;3.10;;
84054;SDS011;74141;51.504;7.122;2024-03-17T09:45:50;4.10;;;3.05;;
84054;SDS011;74141;51.504;7.122;2024-03-17T09:48:19;6.50;;;3.40;;
84054;SDS011;74141;51.504;7.122;2024-03-17T09:50:47;4.78;;;3.10;;
84054;SDS011;74141;51.504;7.122;2024-03-17T09:53:16;5.50;;;3.45;;
84054;SDS011;74141;51.504;7.122;2024-03-17T09:55:43;11.30;;;4.47;;
84054;SDS011;74141;51.504;7.122;2024-03-17T09:58:13;6.95;;;3.88;;
84054;SDS011;74141;51.504;7.122;2024-03-17T10:00:41;4.32;;;2.80;;
84054;SDS011;74141;51.504;7.122;2024-03-17T10:03:06;4.72;;;2.95;;
84054;SDS011;74141;51.504;7.122;2024-03-17T10:05:33;5.15;;;3.00;;
84054;SDS011;74141;51.504;7.122;2024-03-17T10:07:58;5.93;;;3.22;;
84054;SDS011;74141;51.504;7.122;2024-03-17T10:10:23;6.20;;;3.50;;
84054;SDS011;74141;51.504;7.122;2024-03-17T10:12:49;4.55;;;3.25;;
84054;SDS011;74141;51.504;7.122;2024-03-17T10:15:16;6.43;;;3.10;;
84054;SDS011;74141;51.504;7.122;2024-03-17T10:17:42;5.72;;;3.03;;
84054;SDS011;74141;51.504;7.122;2024-03-17T10:20:11;5.70;;;3.17;;
84054;SDS011;74141;51.504;7.122;2024-03-17T10:22:40;4.78;;;3.17;;
84054;SDS011;74141;51.504;7.122;2024-03-17T10:25:06;5.78;;;3.30;;
84054;SDS011;74141;51.504;7.122;2024-03-17T10:27:34;7.45;;;3.20;;
84054;SDS011;74141;51.504;7.122;2024-03-17T10:30:00;6.50;;;2.90;;
84054;SDS011;74141;51.504;7.122;2024-03-17T10:32:25;6.18;;;3.75;;
84054;SDS011;74141;51.504;7.122;2024-03-17T10:34:51;5.90;;;3.42;;
84054;SDS011;74141;51.504;7.122;2024-03-17T10:37:17;5.43;;;3.40;;
84054;SDS011;74141;51.504;7.122;2024-03-17T10:39:45;5.03;;;3.38;;
84054;SDS011;74141;51.504;7.122;2024-03-17T10:42:13;4.97;;;3.20;;
84054;SDS011;74141;51.504;7.122;2024-03-17T10:47:14;4.43;;;2.92;;
84054;SDS011;74141;51.504;7.122;2024-03-17T10:49:49;4.95;;;3.22;;
84054;SDS011;74141;51.504;7.122;2024-03-17T10:52:16;6.70;;;3.85;;
84054;SDS011;74141;51.504;7.122;2024-03-17T10:54:46;4.70;;;3.35;;
84054;SDS011;74141;51.504;7.122;2024-03-17T10:59:50;7.32;;;3.75;;
84054;SDS011;74141;51.504;7.122;2024-03-17T11:04:53;7.68;;;3.47;;
84054;SDS011;74141;51.504;7.122;2024-03-17T11:07:21;4.15;;;3.35;;
84054;SDS011;74141;51.504;7.122;2024-03-17T11:09:47;5.53;;;3.70;;
84054;SDS011;74141;51.504;7.122;2024-03-17T11:20:33;7.13;;;3.95;;
84054;SDS011;74141;51.504;7.122;2024-03-17T11:22:59;4.95;;;3.40;;
84054;SDS011;74141;51.504;7.122;2024-03-17T11:27:50;5.37;;;3.50;;
84054;SDS011;74141;51.504;7.122;2024-03-17T11:38:55;6.47;;;3.63;;
84054;SDS011;74141;51.504;7.122;2024-03-17T11:46:44;6.75;;;4.25;;
84054;SDS011;74141;51.504;7.122;2024-03-17T11:51:57;6.32;;;4.05;;
84054;SDS011;74141;51.504;7.122;2024-03-17T11:54:28;7.30;;;3.90;;
84054;SDS011;74141;51.504;7.122;2024-03-17T11:56:55;5.90;;;3.60;;
84054;SDS011;74141;51.504;7.122;2024-03-17T11:59:25;7.35;;;4.28;;
84054;SDS011;74141;51.504;7.122;2024-03-17T12:01:51;6.88;;;3.47;;
84054;SDS011;74141;51.504;7.122;2024-03-17T12:04:17;6.13;;;3.42;;
84054;SDS011;74141;51.504;7.122;2024-03-17T12:06:46;7.47;;;4.50;;
84054;SDS011;74141;51.504;7.122;2024-03-17T12:09:22;5.85;;;3.72;;
84054;SDS011;74141;51.504;7.122;2024-03-17T12:11:50;6.00;;;3.83;;
84054;SDS011;74141;51.504;7.122;2024-03-17T12:14:22;7.07;;;3.85;;
84054;SDS011;74141;51.504;7.122;2024-03-17T12:19:14;5.07;;;4.00;;
84054;SDS011;74141;51.504;7.122;2024-03-17T12:21:45;4.72;;;3.63;;
84054;SDS011;74141;51.504;7.122;2024-03-17T12:24:16;5.47;;;3.80;;
84054;SDS011;74141;51.504;7.122;2024-03-17T12:26:52;5.72;;;3.70;;
84054;SDS011;74141;51.504;7.122;2024-03-17T12:31:46;8.40;;;3.90;;
84054;SDS011;74141;51.504;7.122;2024-03-17T12:34:12;7.07;;;4.03;;
84054;SDS011;74141;51.504;7.122;2024-03-17T12:36:39;5.22;;;3.42;;
84054;SDS011;74141;51.504;7.122;2024-03-17T12:39:11;5.60;;;3.63;;
84054;SDS011;74141;51.504;7.122;2024-03-17T12:41:43;5.32;;;3.38;;
84054;SDS011;74141;51.504;7.122;2024-03-17T12:44:19;5.95;;;3.28;;
84054;SDS011;74141;51.504;7.122;2024-03-17T12:46:46;4.30;;;3.10;;
84054;SDS011;74141;51.504;7.122;2024-03-17T12:49:11;5.40;;;3.27;;
84054;SDS011;74141;51.504;7.122;2024-03-17T12:51:36;6.10;;;3.03;;
84054;SDS011;74141;51.504;7.122;2024-03-17T12:54:11;5.60;;;3.40;;
84054;SDS011;74141;51.504;7.122;2024-03-17T12:56:40;8.25;;;4.30;;
84054;SDS011;74141;51.504;7.122;2024-03-17T12:59:23;5.43;;;3.33;;
84054;SDS011;74141;51.504;7.122;2024-03-17T13:02:11;4.47;;;3.13;;
84054;SDS011;74141;51.504;7.122;2024-03-17T13:04:39;7.20;;;4.05;;
84054;SDS011;74141;51.504;7.122;2024-03-17T13:07:11;4.85;;;3.40;;
84054;SDS011;74141;51.504;7.122;2024-03-17T13:09:37;5.07;;;3.47;;
84054;SDS011;74141;51.504;7.122;2024-03-17T13:12:02;6.50;;;3.60;;
84054;SDS011;74141;51.504;7.122;2024-03-17T13:14:38;6.60;;;3.58;;
84054;SDS011;74141;51.504;7.122;2024-03-17T13:17:03;8.63;;;3.67;;
84054;SDS011;74141;51.504;7.122;2024-03-17T13:19:28;4.60;;;2.93;;
84054;SDS011;74141;51.504;7.122;2024-03-17T13:21:53;4.10;;;3.20;;
84054;SDS011;74141;51.504;7.122;2024-03-17T13:24:19;5.30;;;3.27;;
84054;SDS011;74141;51.504;7.122;2024-03-17T13:26:44;4.80;;;3.17;;
84054;SDS011;74141;51.504;7.122;2024-03-17T13:29:10;4.03;;;3.20;;
84054;SDS011;74141;51.504;7.122;2024-03-17T13:31:35;5.57;;;3.08;;
84054;SDS011;74141;51.504;7.122;2024-03-17T13:34:00;4.30;;;2.80;;
84054;SDS011;74141;51.504;7.122;2024-03-17T13:36:25;7.03;;;3.83;;
84054;SDS011;74141;51.504;7.122;2024-03-17T13:38:52;5.22;;;3.28;;
84054;SDS011;74141;51.504;7.122;2024-03-17T13:41:18;5.20;;;3.30;;
84054;SDS011;74141;51.504;7.122;2024-03-17T13:43:43;9.50;;;5.72;;
84054;SDS011;74141;51.504;7.122;2024-03-17T13:46:09;4.63;;;2.92;;
84054;SDS011;74141;51.504;7.122;2024-03-17T13:48:35;9.15;;;4.57;;
84054;SDS011;74141;51.504;7.122;2024-03-17T13:51:01;7.55;;;4.03;;
84054;SDS011;74141;51.504;7.122;2024-03-17T13:53:26;3.88;;;2.92;;
84054;SDS011;74141;51.504;7.122;2024-03-17T13:55:52;5.60;;;3.33;;
84054;SDS011;74141;51.504;7.122;2024-03-17T13:58:17;8.43;;;3.10;;
84054;SDS011;74141;51.504;7.122;2024-03-17T14:00:43;5.90;;;3.33;;
84054;SDS011;74141;51.504;7.122;2024-03-17T14:03:08;5.30;;;3.15;;
84054;SDS011;74141;51.504;7.122;2024-03-17T14:05:34;5.15;;;2.85;;
84054;SDS011;74141;51.504;7.122;2024-03-17T14:08:00;7.88;;;4.40;;
84054;SDS011;74141;51.504;7.122;2024-03-17T14:10:26;7.75;;;3.80;;
84054;SDS011;74141;51.504;7.122;2024-03-17T14:12:51;7.18;;;3.15;;
84054;SDS011;74141;51.504;7.122;2024-03-17T14:15:18;4.38;;;3.17;;
84054;SDS011;74141;51.504;7.122;2024-03-17T14:17:45;5.28;;;2.83;;
84054;SDS011;74141;51.504;7.122;2024-03-17T14:20:11;3.40;;;2.50;;
84054;SDS011;74141;51.504;7.122;2024-03-17T14:22:39;4.72;;;2.60;;
84054;SDS011;74141;51.504;7.122;2024-03-17T14:25:08;3.72;;;2.55;;
84054;SDS011;74141;51.504;7.122;2024-03-17T14:27:36;5.43;;;2.47;;
84054;SDS011;74141;51.504;7.122;2024-03-17T14:30:02;4.15;;;2.45;;
84054;SDS011;74141;51.504;7.122;2024-03-17T14:32:29;5.90;;;2.72;;
84054;SDS011;74141;51.504;7.122;2024-03-17T14:34:54;4.45;;;3.17;;
84054;SDS011;74141;51.504;7.122;2024-03-17T14:37:20;7.55;;;3.08;;
84054;SDS011;74141;51.504;7.122;2024-03-17T14:39:45;4.00;;;2.83;;
84054;SDS011;74141;51.504;7.122;2024-03-17T14:42:10;5.13;;;2.72;;
84054;SDS011;74141;51.504;7.122;2024-03-17T14:44:36;3.00;;;2.13;;
84054;SDS011;74141;51.504;7.122;2024-03-17T14:47:01;4.47;;;2.15;;
84054;SDS011;74141;51.504;7.122;2024-03-17T14:49:29;7.13;;;2.63;;
84054;SDS011;74141;51.504;7.122;2024-03-17T14:51:55;5.07;;;2.80;;
84054;SDS011;74141;51.504;7.122;2024-03-17T14:54:21;3.60;;;2.40;;
84054;SDS011;74141;51.504;7.122;2024-03-17T14:56:47;4.07;;;2.47;;
84054;SDS011;74141;51.504;7.122;2024-03-17T14:59:12;3.30;;;2.30;;
84054;SDS011;74141;51.504;7.122;2024-03-17T15:01:37;4.32;;;2.22;;
84054;SDS011;74141;51.504;7.122;2024-03-17T15:04:03;3.80;;;2.40;;
84054;SDS011;74141;51.504;7.122;2024-03-17T15:06:28;3.60;;;2.58;;
84054;SDS011;74141;51.504;7.122;2024-03-17T15:08:53;5.68;;;3.00;;
84054;SDS011;74141;51.504;7.122;2024-03-17T15:11:19;4.15;;;2.38;;
84054;SDS011;74141;51.504;7.122;2024-03-17T15:13:44;5.32;;;2.90;;
84054;SDS011;74141;51.504;7.122;2024-03-17T15:16:10;5.30;;;2.88;;
84054;SDS011;74141;51.504;7.122;2024-03-17T15:18:36;5.72;;;3.10;;
84054;SDS011;74141;51.504;7.122;2024-03-17T15:21:03;3.88;;;2.80;;
84054;SDS011;74141;51.504;7.122;2024-03-17T15:23:31;5.65;;;2.70;;
84054;SDS011;74141;51.504;7.122;2024-03-17T15:26:04;3.60;;;2.50;;